createdAt,value
2017-10-02T00:00:30.182Z,9.30
2017-10-02T00:02:58.651Z,9.30
2017-10-02T00:05:27.119Z,9.40
2017-10-02T00:07:55.592Z,9.30
2017-10-02T00:10:24.089Z,9.40
2017-10-02T00:12:52.703Z,9.30
2017-10-02T00:15:21.179Z,9.30
2017-10-02T00:17:49.663Z,9.30
2017-10-02T00:20:18.142Z,9.30
2017-10-02T00:22:46.630Z,9.30
2017-10-02T00:25:15.083Z,9.30
2017-10-02T00:27:43.550Z,9.30
2017-10-02T00:30:12.435Z,9.40
2017-10-02T00:32:41.663Z,9.40
2017-10-02T00:35:10.138Z,9.30
2017-10-02T00:37:38.615Z,9.40
2017-10-02T00:40:07.092Z,9.40
2017-10-02T00:42:35.551Z,9.40
2017-10-02T00:45:04.012Z,9.40
2017-10-02T00:47:32.492Z,9.50
2017-10-02T00:50:00.972Z,9.50
2017-10-02T00:52:28.743Z,9.60
2017-10-02T00:54:57.207Z,9.70
2017-10-02T00:57:25.675Z,9.70
2017-10-02T00:59:55.063Z,9.70
2017-10-02T01:02:23.552Z,9.70
2017-10-02T01:04:52.007Z,9.70
2017-10-02T01:07:21.248Z,9.60
2017-10-02T01:09:49.695Z,9.50
2017-10-02T01:12:18.927Z,9.50
2017-10-02T01:14:47.412Z,9.40
2017-10-02T01:17:15.538Z,9.40
2017-10-02T01:19:44.805Z,9.40
2017-10-02T01:22:13.267Z,9.40
2017-10-02T01:24:44.943Z,9.40
2017-10-02T01:27:13.405Z,9.40
2017-10-02T01:29:42.005Z,9.50
2017-10-02T01:32:10.525Z,9.50
2017-10-02T01:34:39.010Z,9.50
2017-10-02T01:37:08.353Z,9.50
2017-10-02T01:39:36.840Z,9.40
2017-10-02T01:42:05.351Z,9.50
2017-10-02T01:44:33.831Z,9.50
2017-10-02T01:47:02.338Z,9.50
2017-10-02T01:49:31.569Z,9.40
2017-10-02T01:52:00.047Z,9.40
2017-10-02T01:54:28.502Z,9.40
2017-10-02T01:56:57.735Z,9.50
2017-10-02T01:59:26.196Z,9.40
2017-10-02T02:01:55.453Z,9.40
2017-10-02T02:04:23.918Z,9.40
2017-10-02T02:06:53.326Z,9.30
2017-10-02T02:09:21.867Z,9.30
2017-10-02T02:11:51.087Z,9.30
2017-10-02T02:14:19.557Z,9.20
2017-10-02T02:16:48.776Z,9.20
2017-10-02T02:19:17.235Z,9.20
2017-10-02T02:21:46.571Z,9.20
2017-10-02T02:24:15.032Z,9.10
2017-10-02T02:26:43.501Z,9.10
2017-10-02T02:29:12.739Z,9.10
2017-10-02T02:31:41.210Z,9.10
2017-10-02T02:34:09.337Z,9.10
2017-10-02T02:36:39.301Z,9.00
2017-10-02T02:39:07.854Z,9.00
2017-10-02T02:41:37.195Z,9.10
2017-10-02T02:44:05.828Z,9.00
2017-10-02T02:46:35.818Z,9.00
2017-10-02T02:49:04.281Z,9.00
2017-10-02T02:51:32.769Z,9.00
2017-10-02T02:54:01.269Z,8.90
2017-10-02T02:56:29.739Z,8.90
2017-10-02T02:58:58.199Z,8.90
2017-10-02T03:01:26.659Z,8.90
2017-10-02T03:03:55.898Z,8.80
2017-10-02T03:06:24.355Z,8.70
2017-10-02T03:08:52.827Z,8.70
2017-10-02T03:11:22.257Z,8.60
2017-10-02T03:13:50.738Z,8.60
2017-10-02T03:16:19.331Z,8.60
2017-10-02T03:18:47.804Z,8.60
2017-10-02T03:21:16.277Z,8.50
2017-10-02T03:23:44.748Z,8.50
2017-10-02T03:26:13.974Z,8.50
2017-10-02T03:28:42.455Z,8.50
2017-10-02T03:31:10.940Z,8.50
2017-10-02T03:33:39.404Z,8.50
2017-10-02T03:36:07.879Z,8.60
2017-10-02T03:38:36.339Z,8.70
2017-10-02T03:41:05.576Z,8.70
2017-10-02T03:43:34.039Z,8.70
2017-10-02T03:46:03.279Z,8.80
2017-10-02T03:48:31.741Z,8.70
2017-10-02T03:51:00.195Z,8.80
2017-10-02T03:53:29.561Z,8.80
2017-10-02T03:55:58.175Z,8.70
2017-10-02T03:58:27.298Z,8.70
2017-10-02T04:00:55.751Z,8.60
2017-10-02T04:03:24.799Z,8.50
2017-10-02T04:05:53.247Z,8.50
2017-10-02T04:08:22.658Z,8.60
2017-10-02T04:10:52.043Z,8.60
2017-10-02T04:13:21.293Z,8.70
2017-10-02T04:15:49.841Z,8.60
2017-10-02T04:18:19.079Z,8.60
2017-10-02T04:20:47.558Z,8.50
2017-10-02T04:23:16.028Z,8.50
2017-10-02T04:25:44.613Z,8.50
2017-10-02T04:28:13.071Z,8.50
2017-10-02T04:30:41.202Z,8.40
2017-10-02T04:33:09.686Z,8.40
2017-10-02T04:35:38.180Z,8.40
2017-10-02T04:38:06.738Z,8.40
2017-10-02T04:40:35.218Z,8.40
2017-10-02T04:43:03.776Z,8.40
2017-10-02T04:45:31.870Z,8.40
2017-10-02T04:48:00.451Z,8.40
2017-10-02T04:50:29.062Z,8.30
2017-10-02T04:52:57.520Z,8.20
2017-10-02T04:55:25.994Z,8.20
2017-10-02T04:57:54.464Z,8.20
2017-10-02T05:00:22.928Z,8.30
2017-10-02T05:02:52.167Z,8.40
2017-10-02T05:05:20.626Z,8.30
2017-10-02T05:07:49.110Z,8.40
2017-10-02T05:10:17.568Z,8.40
2017-10-02T05:12:46.813Z,8.40
2017-10-02T05:15:15.415Z,8.40
2017-10-02T05:17:43.879Z,8.50
2017-10-02T05:20:12.564Z,8.50
2017-10-02T05:22:41.030Z,8.60
2017-10-02T05:25:09.503Z,8.70
2017-10-02T05:27:37.978Z,8.60
2017-10-02T05:30:07.235Z,8.50
2017-10-02T05:32:35.704Z,8.50
2017-10-02T05:35:04.167Z,8.50
2017-10-02T05:37:32.720Z,8.50
2017-10-02T05:40:01.695Z,8.70
2017-10-02T05:42:30.166Z,8.70
2017-10-02T05:44:58.632Z,8.90
2017-10-02T05:47:27.236Z,9.00
2017-10-02T05:49:56.459Z,9.30
2017-10-02T05:52:25.710Z,9.40
2017-10-02T05:54:54.195Z,9.30
2017-10-02T05:57:22.682Z,9.40
2017-10-02T05:59:51.145Z,9.50
2017-10-02T06:02:19.622Z,9.40
2017-10-02T06:04:48.126Z,9.40
2017-10-02T06:07:16.580Z,9.50
2017-10-02T06:09:45.072Z,9.50
2017-10-02T06:12:13.536Z,9.70
2017-10-02T06:14:42.814Z,9.90
2017-10-02T06:17:12.791Z,10.10
2017-10-02T06:19:41.275Z,10.10
2017-10-02T06:22:09.737Z,10.30
2017-10-02T06:24:38.219Z,10.50
2017-10-02T06:27:06.703Z,10.80
2017-10-02T06:29:35.175Z,11.00
2017-10-02T06:32:03.673Z,11.20
2017-10-02T06:34:32.140Z,11.30
2017-10-02T06:37:00.627Z,11.40
2017-10-02T06:39:29.099Z,11.50
2017-10-02T06:41:57.580Z,11.60
2017-10-02T06:44:26.065Z,11.70
2017-10-02T06:46:55.302Z,11.90
2017-10-02T06:49:23.876Z,11.90
2017-10-02T06:51:52.343Z,12.00
2017-10-02T06:54:20.817Z,12.10
2017-10-02T06:56:49.287Z,12.10
2017-10-02T06:59:18.528Z,12.20
2017-10-02T07:01:47.011Z,12.10
2017-10-02T07:04:15.492Z,12.20
2017-10-02T07:06:43.946Z,12.20
2017-10-02T07:09:12.433Z,12.30
2017-10-02T07:11:40.891Z,12.30
2017-10-02T07:14:10.115Z,12.50
2017-10-02T07:16:38.726Z,12.40
2017-10-02T07:19:07.224Z,12.60
2017-10-02T07:21:35.695Z,12.60
2017-10-02T07:24:03.984Z,12.70
2017-10-02T07:26:32.399Z,12.70
2017-10-02T07:29:01.619Z,12.70
2017-10-02T07:31:30.862Z,12.60
2017-10-02T07:33:59.327Z,12.60
2017-10-02T07:36:27.940Z,12.60
2017-10-02T07:38:56.422Z,12.70
2017-10-02T07:41:24.903Z,12.70
2017-10-02T07:43:53.467Z,12.70
2017-10-02T07:46:21.923Z,12.70
2017-10-02T07:48:50.423Z,12.70
2017-10-02T07:51:18.911Z,12.60
2017-10-02T07:53:47.391Z,12.60
2017-10-02T07:56:15.850Z,12.60
2017-10-02T07:58:44.339Z,12.70
2017-10-02T08:01:12.802Z,12.70
2017-10-02T08:03:42.043Z,12.70
2017-10-02T08:06:10.531Z,12.60
2017-10-02T08:08:39.015Z,12.70
2017-10-02T08:11:07.500Z,12.80
2017-10-02T08:13:35.966Z,13.00
2017-10-02T08:16:04.448Z,13.20
2017-10-02T08:18:33.751Z,13.40
2017-10-02T08:21:02.241Z,13.40
2017-10-02T08:23:30.738Z,13.50
2017-10-02T08:25:59.406Z,13.70
2017-10-02T08:28:27.891Z,13.70
2017-10-02T08:30:56.368Z,13.90
2017-10-02T08:33:24.835Z,14.00
2017-10-02T08:35:52.761Z,14.00
2017-10-02T08:38:21.039Z,14.10
2017-10-02T08:40:49.663Z,14.20
2017-10-02T08:43:18.142Z,14.30
2017-10-02T08:45:46.618Z,14.40
2017-10-02T08:48:15.848Z,14.60
2017-10-02T08:50:44.323Z,14.60
2017-10-02T08:53:12.788Z,14.70
2017-10-02T08:55:42.039Z,14.80
2017-10-02T08:58:10.599Z,14.70
2017-10-02T09:00:39.091Z,14.80
2017-10-02T09:03:07.556Z,14.80
2017-10-02T09:05:36.154Z,14.80
2017-10-02T09:08:04.774Z,14.80
2017-10-02T09:10:33.366Z,14.70
2017-10-02T09:13:01.834Z,14.90
2017-10-02T09:15:30.324Z,15.10
2017-10-02T09:17:59.554Z,15.30
2017-10-02T09:20:28.790Z,15.50
2017-10-02T09:22:57.271Z,15.40
2017-10-02T09:25:25.739Z,15.40
2017-10-02T09:27:54.211Z,15.60
2017-10-02T09:30:22.675Z,15.80
2017-10-02T09:32:51.923Z,15.70
2017-10-02T09:35:20.384Z,15.70
2017-10-02T09:37:48.878Z,15.70
2017-10-02T09:40:17.361Z,15.50
2017-10-02T09:42:45.852Z,15.50
2017-10-02T09:45:14.332Z,15.50
2017-10-02T09:47:42.811Z,15.30
2017-10-02T09:50:11.367Z,15.10
2017-10-02T09:52:40.595Z,14.80
2017-10-02T09:55:09.083Z,14.70
2017-10-02T09:57:37.544Z,14.80
2017-10-02T10:00:06.040Z,14.70
2017-10-02T10:02:34.502Z,14.60
2017-10-02T10:05:02.976Z,14.60
2017-10-02T10:07:32.246Z,14.50
2017-10-02T10:10:00.762Z,14.50
2017-10-02T10:12:29.058Z,14.60
2017-10-02T10:14:57.536Z,14.70
2017-10-02T10:17:26.019Z,14.70
2017-10-02T10:19:54.500Z,14.90
2017-10-02T10:22:22.984Z,14.90
2017-10-02T10:24:51.532Z,14.90
2017-10-02T10:27:20.016Z,14.90
2017-10-02T10:29:48.493Z,14.90
2017-10-02T10:32:17.007Z,15.00
2017-10-02T10:34:45.500Z,14.90
2017-10-02T10:37:13.795Z,14.80
2017-10-02T10:39:42.244Z,14.90
2017-10-02T10:42:11.540Z,14.90
2017-10-02T10:44:40.779Z,15.00
2017-10-02T10:47:09.255Z,14.90
2017-10-02T10:49:37.756Z,15.00
2017-10-02T10:52:06.217Z,15.10
2017-10-02T10:54:34.693Z,15.30
2017-10-02T10:57:03.151Z,15.40
2017-10-02T10:59:32.368Z,15.70
2017-10-02T11:02:00.849Z,15.60
2017-10-02T11:04:29.306Z,15.70
2017-10-02T11:06:58.556Z,15.90
2017-10-02T11:09:27.066Z,15.90
2017-10-02T11:11:55.547Z,15.90
2017-10-02T11:14:24.003Z,16.00
2017-10-02T11:16:52.578Z,16.20
2017-10-02T11:19:21.049Z,16.40
2017-10-02T11:21:49.343Z,16.60
2017-10-02T11:24:17.814Z,16.70
2017-10-02T11:26:46.432Z,16.90
2017-10-02T11:29:14.915Z,17.10
2017-10-02T11:31:43.379Z,17.30
2017-10-02T11:34:11.872Z,17.40
2017-10-02T11:36:40.342Z,17.60
2017-10-02T11:39:08.818Z,17.60
2017-10-02T11:41:37.295Z,17.60
2017-10-02T11:44:05.763Z,17.80
2017-10-02T11:46:34.231Z,17.70
2017-10-02T11:49:03.487Z,17.70
2017-10-02T11:51:31.947Z,17.70
2017-10-02T11:54:00.419Z,17.30
2017-10-02T11:56:28.890Z,17.30
2017-10-02T11:58:57.427Z,17.30
2017-10-02T12:01:25.894Z,17.30
2017-10-02T12:03:54.354Z,17.40
2017-10-02T12:06:22.888Z,17.40
2017-10-02T12:08:51.340Z,17.50
2017-10-02T12:11:19.824Z,17.20
2017-10-02T12:13:48.292Z,17.30
2017-10-02T12:16:16.835Z,17.40
2017-10-02T12:18:46.074Z,17.40
2017-10-02T12:21:14.559Z,17.40
2017-10-02T12:23:43.019Z,17.40
2017-10-02T12:26:11.595Z,17.50
2017-10-02T12:28:40.819Z,17.90
2017-10-02T12:31:09.335Z,17.90
2017-10-02T12:33:38.567Z,18.20
2017-10-02T12:36:07.799Z,18.30
2017-10-02T12:38:36.268Z,18.20
2017-10-02T12:41:05.499Z,18.20
2017-10-02T12:43:33.975Z,18.20
2017-10-02T12:46:02.443Z,18.10
2017-10-02T12:48:30.920Z,17.90
2017-10-02T12:50:59.401Z,18.00
2017-10-02T12:53:27.856Z,18.00
2017-10-02T12:55:57.103Z,18.10
2017-10-02T12:58:25.591Z,18.00
2017-10-02T13:00:54.068Z,18.10
2017-10-02T13:03:22.524Z,18.20
2017-10-02T13:05:51.789Z,18.20
2017-10-02T13:08:21.244Z,18.30
2017-10-02T13:10:49.739Z,18.20
2017-10-02T13:13:18.215Z,18.50
2017-10-02T13:15:46.681Z,18.70
2017-10-02T13:18:15.160Z,18.90
2017-10-02T13:20:43.747Z,19.10
2017-10-02T13:23:12.254Z,19.10
2017-10-02T13:25:40.711Z,18.90
2017-10-02T13:28:09.179Z,18.70
2017-10-02T13:30:38.421Z,18.20
2017-10-02T13:33:06.999Z,18.10
2017-10-02T13:35:35.455Z,17.90
2017-10-02T13:38:04.711Z,17.70
2017-10-02T13:40:33.179Z,17.70
2017-10-02T13:43:01.667Z,17.60
2017-10-02T13:45:30.120Z,17.50
2017-10-02T13:47:58.594Z,17.60
2017-10-02T13:50:27.074Z,17.60
2017-10-02T13:52:55.539Z,17.70
2017-10-02T13:55:24.796Z,17.80
2017-10-02T13:57:53.255Z,17.70
2017-10-02T14:00:21.781Z,17.80
2017-10-02T14:02:50.244Z,17.80
2017-10-02T14:05:18.683Z,17.80
2017-10-02T14:07:47.710Z,17.70
2017-10-02T14:10:16.226Z,17.70
2017-10-02T14:12:44.715Z,17.70
2017-10-02T14:15:13.176Z,17.60
2017-10-02T14:17:41.683Z,17.60
2017-10-02T14:20:10.211Z,17.40
2017-10-02T14:22:38.702Z,17.50
2017-10-02T14:25:07.165Z,17.50
2017-10-02T14:27:35.725Z,17.50
2017-10-02T14:30:04.958Z,17.40
2017-10-02T14:32:33.431Z,17.30
2017-10-02T14:35:01.937Z,17.30
2017-10-02T14:37:30.407Z,17.30
2017-10-02T14:39:58.884Z,17.40
2017-10-02T14:42:27.339Z,17.50
2017-10-02T14:44:56.581Z,17.70
2017-10-02T14:47:25.042Z,17.60
2017-10-02T14:49:53.552Z,17.60
2017-10-02T14:52:22.007Z,17.50
2017-10-02T14:54:50.484Z,17.40
2017-10-02T14:57:18.958Z,17.30
2017-10-02T14:59:48.210Z,17.20
2017-10-02T15:02:16.682Z,17.20
2017-10-02T15:04:45.173Z,17.20
2017-10-02T15:07:13.651Z,17.30
2017-10-02T15:09:42.122Z,17.20
2017-10-02T15:12:10.614Z,17.30
2017-10-02T15:14:39.098Z,17.10
2017-10-02T15:17:07.547Z,17.10
2017-10-02T15:19:36.047Z,17.10
2017-10-02T15:22:04.512Z,17.00
2017-10-02T15:24:32.797Z,16.90
2017-10-02T15:27:01.275Z,16.80
2017-10-02T15:29:29.779Z,17.00
2017-10-02T15:31:58.241Z,17.00
2017-10-02T15:34:26.725Z,17.00
2017-10-02T15:36:55.227Z,16.90
2017-10-02T15:39:23.741Z,17.00
2017-10-02T15:41:52.215Z,17.00
2017-10-02T15:44:20.694Z,17.00
2017-10-02T15:46:49.159Z,17.00
2017-10-02T15:49:17.688Z,16.90
2017-10-02T15:51:46.163Z,16.90
2017-10-02T15:54:14.622Z,17.00
2017-10-02T15:56:43.123Z,17.00
2017-10-02T15:59:11.590Z,16.90
2017-10-02T16:01:40.078Z,16.70
2017-10-02T16:04:08.575Z,16.70
2017-10-02T16:06:37.047Z,16.60
2017-10-02T16:09:04.772Z,16.60
2017-10-02T16:11:33.270Z,16.60
2017-10-02T16:14:01.734Z,16.60
2017-10-02T16:16:30.214Z,16.50
2017-10-02T16:18:58.787Z,16.50
2017-10-02T16:21:27.252Z,16.60
2017-10-02T16:23:56.607Z,16.50
2017-10-02T16:26:25.081Z,16.40
2017-10-02T16:28:53.534Z,16.40
2017-10-02T16:31:22.139Z,16.40
2017-10-02T16:33:50.613Z,16.40
2017-10-02T16:36:19.106Z,16.40
2017-10-02T16:38:47.591Z,16.40
2017-10-02T16:41:16.203Z,16.40
2017-10-02T16:43:44.674Z,16.40
2017-10-02T16:46:13.196Z,16.40
2017-10-02T16:48:41.895Z,16.30
2017-10-02T16:51:11.116Z,16.20
2017-10-02T16:53:39.621Z,16.20
2017-10-02T16:56:08.076Z,16.20
2017-10-02T16:58:36.584Z,16.20
2017-10-02T17:01:05.049Z,16.20
2017-10-02T17:03:33.515Z,16.20
2017-10-02T17:06:02.777Z,16.10
2017-10-02T17:08:31.280Z,16.00
2017-10-02T17:10:59.759Z,16.10
2017-10-02T17:13:28.039Z,16.10
2017-10-02T17:15:57.302Z,16.10
2017-10-02T17:18:25.683Z,16.00
2017-10-02T17:20:53.978Z,16.10
2017-10-02T17:23:22.451Z,16.00
2017-10-02T17:25:50.958Z,16.00
2017-10-02T17:28:19.450Z,15.90
2017-10-02T17:30:48.691Z,15.90
2017-10-02T17:33:17.178Z,15.90
2017-10-02T17:35:45.651Z,15.90
2017-10-02T17:38:14.164Z,15.80
2017-10-02T17:40:42.650Z,15.80
2017-10-02T17:43:11.128Z,15.80
2017-10-02T17:45:39.587Z,15.70
2017-10-02T17:48:08.083Z,15.70
2017-10-02T17:50:36.656Z,15.70
2017-10-02T17:53:05.135Z,15.70
2017-10-02T17:55:34.456Z,15.60
2017-10-02T17:58:02.913Z,15.60
2017-10-02T18:00:31.420Z,15.60
2017-10-02T18:02:59.994Z,15.60
2017-10-02T18:05:28.618Z,15.50
2017-10-02T18:07:57.103Z,15.50
2017-10-02T18:10:25.628Z,15.50
2017-10-02T18:12:54.176Z,15.60
2017-10-02T18:15:22.661Z,15.60
2017-10-02T18:17:51.899Z,15.60
2017-10-02T18:20:20.387Z,15.60
2017-10-02T18:22:48.887Z,15.60
2017-10-02T18:25:17.444Z,15.60
2017-10-02T18:27:45.940Z,15.60
2017-10-02T18:30:14.395Z,15.60
2017-10-02T18:32:43.657Z,15.60
2017-10-02T18:35:12.086Z,15.50
2017-10-02T18:37:40.414Z,15.50
2017-10-02T18:40:08.897Z,15.50
2017-10-02T18:42:37.385Z,15.50
2017-10-02T18:45:05.859Z,15.50
2017-10-02T18:47:34.363Z,15.40
2017-10-02T18:50:02.842Z,15.40
2017-10-02T18:52:31.382Z,15.40
2017-10-02T18:54:59.871Z,15.40
2017-10-02T18:57:28.447Z,15.40
2017-10-02T18:59:56.926Z,15.40
2017-10-02T19:02:25.194Z,15.30
2017-10-02T19:04:53.663Z,15.30
2017-10-02T19:07:22.903Z,15.40
2017-10-02T19:09:51.384Z,15.40
2017-10-02T19:12:19.876Z,15.50
2017-10-02T19:14:48.355Z,15.40
2017-10-02T19:17:16.817Z,15.30
2017-10-02T19:19:45.298Z,15.30
2017-10-02T19:22:13.784Z,15.40
2017-10-02T19:24:42.368Z,15.30
2017-10-02T19:27:10.844Z,15.30
2017-10-02T19:29:39.335Z,15.30
2017-10-02T19:32:07.786Z,15.30
2017-10-02T19:34:37.017Z,15.40
2017-10-02T19:37:05.499Z,15.30
2017-10-02T19:39:33.991Z,15.40
2017-10-02T19:42:02.536Z,15.40
2017-10-02T19:44:31.771Z,15.40
2017-10-02T19:47:00.250Z,15.30
2017-10-02T19:49:28.735Z,15.30
2017-10-02T19:51:57.218Z,15.30
2017-10-02T19:54:25.735Z,15.40
2017-10-02T19:56:54.199Z,15.30
2017-10-02T19:59:22.715Z,15.30
2017-10-02T20:01:51.201Z,15.40
2017-10-02T20:04:20.442Z,15.30
2017-10-02T20:06:48.991Z,15.30
2017-10-02T20:09:18.250Z,15.30
2017-10-02T20:11:46.736Z,15.30
2017-10-02T20:14:15.200Z,15.30
2017-10-02T20:16:43.694Z,15.30
2017-10-02T20:19:12.159Z,15.20
2017-10-02T20:21:40.724Z,15.20
2017-10-02T20:24:09.217Z,15.20
2017-10-02T20:26:37.723Z,15.20
2017-10-02T20:29:06.212Z,15.20
2017-10-02T20:31:34.691Z,15.20
2017-10-02T20:34:03.176Z,15.20
2017-10-02T20:36:31.640Z,15.10
2017-10-02T20:39:00.119Z,15.10
2017-10-02T20:41:28.593Z,15.00
2017-10-02T20:43:57.078Z,15.00
2017-10-02T20:46:25.540Z,15.00
2017-10-02T20:48:54.029Z,14.90
2017-10-02T20:51:23.306Z,15.00
2017-10-02T20:53:52.551Z,15.00
2017-10-02T20:56:21.032Z,15.00
2017-10-02T20:58:49.508Z,15.00
2017-10-02T21:01:17.997Z,15.00
2017-10-02T21:03:46.469Z,15.00
2017-10-02T21:06:14.941Z,15.00
2017-10-02T21:08:43.420Z,15.00
2017-10-02T21:11:12.679Z,15.00
2017-10-02T21:13:41.162Z,15.00
2017-10-02T21:16:09.659Z,15.00
2017-10-02T21:18:38.131Z,15.10
2017-10-02T21:21:06.631Z,15.00
2017-10-02T21:23:35.867Z,15.00
2017-10-02T21:26:04.375Z,15.00
2017-10-02T21:28:32.848Z,15.00
2017-10-02T21:31:01.324Z,15.00
2017-10-02T21:33:29.799Z,15.10
2017-10-02T21:35:58.286Z,15.10
2017-10-02T21:38:26.823Z,15.00
2017-10-02T21:40:55.379Z,15.10
2017-10-02T21:43:23.877Z,15.10
2017-10-02T21:45:52.343Z,15.10
2017-10-02T21:48:20.832Z,15.10
2017-10-02T21:50:49.302Z,15.10
2017-10-02T21:53:18.814Z,15.00
2017-10-02T21:55:47.275Z,14.90
2017-10-02T21:58:15.764Z,15.00
2017-10-02T22:00:44.201Z,14.90
2017-10-02T22:03:13.446Z,14.90
2017-10-02T22:05:41.924Z,14.80
2017-10-02T22:08:10.415Z,14.90
2017-10-02T22:10:38.944Z,14.90
2017-10-02T22:13:08.207Z,14.90
2017-10-02T22:15:36.700Z,14.80
2017-10-02T22:18:05.167Z,14.80
2017-10-02T22:20:33.648Z,14.70
2017-10-02T22:23:02.142Z,14.70
2017-10-02T22:25:30.708Z,14.60
2017-10-02T22:27:59.178Z,14.60
2017-10-02T22:30:27.660Z,14.60
2017-10-02T22:32:56.140Z,14.60
2017-10-02T22:35:24.606Z,14.60
2017-10-02T22:37:53.079Z,14.60
2017-10-02T22:40:22.318Z,14.60
2017-10-02T22:42:50.799Z,14.50
2017-10-02T22:45:19.269Z,14.60
2017-10-02T22:47:47.739Z,14.60
2017-10-02T22:50:16.196Z,14.60
2017-10-02T22:52:44.732Z,14.60
2017-10-02T22:55:13.203Z,14.60
2017-10-02T22:57:41.682Z,14.60
2017-10-02T23:00:10.151Z,14.60
2017-10-02T23:02:38.640Z,14.60
2017-10-02T23:05:07.106Z,14.50
2017-10-02T23:07:36.332Z,14.50
2017-10-02T23:10:04.867Z,14.40
2017-10-02T23:12:34.841Z,14.40
2017-10-02T23:15:03.317Z,14.40
2017-10-02T23:17:31.786Z,14.40
2017-10-02T23:20:00.242Z,14.40
2017-10-02T23:22:29.598Z,14.40
2017-10-02T23:24:58.071Z,14.30
2017-10-02T23:27:26.543Z,14.30
2017-10-02T23:29:55.015Z,14.30
2017-10-02T23:32:23.316Z,14.30
2017-10-02T23:34:51.768Z,14.30
2017-10-02T23:37:21.018Z,14.30
2017-10-02T23:39:49.484Z,14.30
2017-10-02T23:42:18.006Z,14.30
2017-10-02T23:44:46.486Z,14.30
2017-10-02T23:47:14.970Z,14.30
2017-10-02T23:49:43.436Z,14.30
2017-10-02T23:52:11.995Z,14.30
2017-10-02T23:54:40.467Z,14.20
2017-10-02T23:57:08.944Z,14.30
2017-10-02T23:59:37.423Z,14.30
